Portada
METAR-TAF:

METAR-TAF

Aeropuertos :

Mauricio, Plaisance, Mauricio

Aeropuerto Internacional Sir Seewoosagur Ramgoolam

latitud: 20-26S, longitud: 057-40E, altitud: 55 m

Observación

El informe se hizo hace 17 minutos, a las 13:00 UTC
Viento 10 kt del este
Temperatura 26°C
Humedad 70%
Presión 1017 hPa
Visibilidad 10 km o más
Escasas nubes a una altura de 1700 ft

METAR: FIMP 171300Z 09010KT 9999 FEW017 26/20 Q1017

Hora: 17:17 (13:17 UTC)

Pronóstico

El informe se hizo hace 2 horas y 7 minutos, a las 11:10 UTC
Pronóstico válido del 17 a las 12 UTC al 18 a las 18 UTC
Viento 10 kt del este
Visibilidad 10 km o más
Nubes dispersas a una altura de 1700 ft

TAF: FIMP 171110Z 1712/1818 08010KT 9999 SCT017

Observaciones y pronósticos meteorológicos de más de 4000 aeropuertos (mensajes METAR y TAF).

Los puntos amarillos y rojos representan las estaciones disponibles.

Ponga el ratón en el punto deseado para ver el nombre de la estación.

Haga clic para ver las observaciones y los pronósticos meteorológicos.

Para cambiar el mapa : haga clic en los botones verdes con una cruz de color negro para hacer un zoom, en el botón verde con un guión para alejar o en las flechas verdes para mapas adyacentes.


METAR-TAF: